x

Lake Winnipeg North (45144) Wave Buoy

3:00am - Mon 25th Jul 2016 All times are UTC.

  • Sig Wave height 0.3ft
  • Peak Period 2s
  • Wind
    9mph, 11mph gusts
  • Air Temp 68°f
  • Sea Pressure 1009.9mb

More Historic Weather Station data

Upgrade to MSW Pro to gain access to the past 30 days of data for over 8000 Wavebouys and Weather Stations around the globe.

Join Pro

Comparision Forecast

View Surf forecast
   
Mon 07/25 3:00am 0.3ft 2s 9 11 mph 1009.9mb 68f
2:00am 0.3ft 3s 7 9 mph 1009.5mb 67f
1:00am 0.7ft 3s 9
mph
1009.6mb 67f
12:00am 0.7ft 3s 7 9 mph 1009.6mb 67f
Sun 07/24 11:00pm 0.7ft 3s 9
mph
1009.7mb 67f
10:00pm 1ft 3s 4
mph
1009.5mb 67f
9:00pm 1ft 3s 9 11 mph 1009.3mb 66f
8:00pm 1.3ft 4s 9
mph
1008.9mb 66f
7:00pm 2ft 4s 9 11 mph 1008.8mb 65f
6:00pm 2.5ft 4s 13 16 mph 1008.5mb 64f
5:00pm 3ft 4s 16 20 mph 1008.2mb 64f
3:00pm  -   -  20
mph
- -
2:00pm 3.5ft 4s 20 22 mph 1005.8mb 63f
Sat 07/23 11:00pm 3ft 4s 22 27 mph 1004.9mb 66f
5:00pm  -   -  9
mph
1009.7mb 64f
4:00pm  -   -  11
mph
- -
11:00am 1ft 3s 13 18 mph 1011mb 67f
9:00am 1ft 3s 11 13 mph 1013.2mb 66f
8:00am 1ft 3s 9 11 mph 1014.1mb 67f
7:00am 0.7ft 2s 13 16 mph 1014.4mb 67f
6:00am 0.3ft 2s 11 13 mph 1014.8mb 67f
5:00am 0.3ft 2s 9 13 mph 1014.5mb 67f
4:00am 0.7ft 3s 7
mph
1014.4mb 68f
2:00am 0.7ft 3s 4 7 mph 1014.3mb 69f
1:00am 0.7ft 3s 4
mph
1014.2mb 70f
12:00am 1ft 3s  -  2 mph 1014.8mb 71f
Fri 07/22 11:00pm 1ft 3s 2 4 mph 1015.2mb 69f
10:00pm 1ft 3s 4 7 mph 1015.4mb 69f
9:00pm 1ft 3s 7 9 mph 1015.7mb 68f
8:00pm 1ft 3s 9 11 mph 1015.8mb 68f
7:00pm 1.3ft 4s 2 4 mph 1015.7mb 68f
5:00pm 2ft 4s 7 9 mph 1015.3mb 66f
4:00pm  -   -  11
mph
1014.3mb 65f
3:00pm 2.5ft 4s 11 16 mph 1013.6mb 65f
2:00pm  -   -  13
mph
1012.7mb 65f
1:00pm  -   -  18
mph
1012mb 64f
12:00pm 2.5ft 4s 18 22 mph 1011.1mb 64f
8:00am 2.5ft 4s 16 18 mph 1008.5mb 66f
6:00am 1.6ft 3s 16 18 mph 1007.6mb 67f
5:00am 1.6ft 3s 13 20 mph 1007.6mb 66f
3:00am 0.7ft 3s 7 9 mph 1006.7mb 69f
1:00am 1ft 3s 4
mph
1007.4mb 70f
Thu 07/21 11:00pm 1ft 3s 2 4 mph 1007.6mb 70f
8:00pm 1.3ft 4s 4 7 mph 1007.9mb 69f
7:00pm 1ft 3s 7
mph
1007.6mb 69f
6:00pm 1ft 3s 7 9 mph 1007.3mb 68f
5:00pm 1.3ft 3s 7
mph
1007mb 68f
4:00pm 1.3ft 4s 7 9 mph 1006.6mb 67f
3:00pm 1.6ft 4s 7 9 mph 1006.3mb 66f
2:00pm 2ft 3s 11 13 mph 1005.8mb 66f
1:00pm 2ft 4s 16 22 mph 1005.5mb 66f
12:00pm 2ft 3s 16 18 mph 1005.1mb 66f
10:00am 1.3ft 3s 13 16 mph 1004.4mb 67f
9:00am 1.3ft 2s 9
mph
1004.7mb 66f
8:00am 0.7ft 2s 13 18 mph 1005mb 67f
7:00am 1ft 3s 9 11 mph 1005.4mb 67f
6:00am 1.6ft 4s 9 11 mph 1005mb 67f
5:00am 2ft 4s 9 11 mph 1005.3mb 66f